sensor_id;sensor_type;location;lat;lon;timestamp;P1;durP1;ratioP1;P2;durP2;ratioP2
73487;SDS011;61721;42.206;25.320;2023-05-10T00:00:55;6.03;;;2.88;;
73487;SDS011;61721;42.206;25.320;2023-05-10T00:03:31;8.02;;;3.15;;
73487;SDS011;61721;42.206;25.320;2023-05-10T00:06:07;7.53;;;2.80;;
73487;SDS011;61721;42.206;25.320;2023-05-10T00:08:43;6.57;;;3.03;;
73487;SDS011;61721;42.206;25.320;2023-05-10T00:11:20;6.30;;;3.08;;
73487;SDS011;61721;42.206;25.320;2023-05-10T00:13:59;9.15;;;3.30;;
73487;SDS011;61721;42.206;25.320;2023-05-10T00:16:35;7.13;;;2.90;;
73487;SDS011;61721;42.206;25.320;2023-05-10T00:19:11;7.30;;;3.00;;
73487;SDS011;61721;42.206;25.320;2023-05-10T00:21:47;8.80;;;3.25;;
73487;SDS011;61721;42.206;25.320;2023-05-10T00:24:23;6.15;;;2.80;;
73487;SDS011;61721;42.206;25.320;2023-05-10T00:26:59;6.57;;;3.00;;
73487;SDS011;61721;42.206;25.320;2023-05-10T00:29:38;8.18;;;3.10;;
73487;SDS011;61721;42.206;25.320;2023-05-10T00:32:14;7.65;;;3.17;;
73487;SDS011;61721;42.206;25.320;2023-05-10T00:34:50;6.30;;;2.83;;
73487;SDS011;61721;42.206;25.320;2023-05-10T00:37:26;5.70;;;2.85;;
73487;SDS011;61721;42.206;25.320;2023-05-10T00:40:02;6.03;;;2.90;;
73487;SDS011;61721;42.206;25.320;2023-05-10T00:42:39;8.52;;;3.03;;
73487;SDS011;61721;42.206;25.320;2023-05-10T00:45:18;6.05;;;3.20;;
73487;SDS011;61721;42.206;25.320;2023-05-10T00:47:55;5.68;;;2.80;;
73487;SDS011;61721;42.206;25.320;2023-05-10T00:50:32;5.30;;;2.95;;
73487;SDS011;61721;42.206;25.320;2023-05-10T00:53:08;5.25;;;3.00;;
73487;SDS011;61721;42.206;25.320;2023-05-10T00:55:44;6.10;;;2.92;;
73487;SDS011;61721;42.206;25.320;2023-05-10T00:58:21;7.35;;;3.53;;
73487;SDS011;61721;42.206;25.320;2023-05-10T01:01:14;5.88;;;3.53;;
73487;SDS011;61721;42.206;25.320;2023-05-10T01:03:50;6.20;;;3.70;;
73487;SDS011;61721;42.206;25.320;2023-05-10T01:06:27;8.32;;;4.65;;
73487;SDS011;61721;42.206;25.320;2023-05-10T01:09:04;9.02;;;4.80;;
73487;SDS011;61721;42.206;25.320;2023-05-10T01:11:41;9.68;;;6.22;;
73487;SDS011;61721;42.206;25.320;2023-05-10T01:14:18;12.27;;;6.88;;
73487;SDS011;61721;42.206;25.320;2023-05-10T01:16:57;10.48;;;7.07;;
73487;SDS011;61721;42.206;25.320;2023-05-10T01:19:34;12.43;;;5.60;;
73487;SDS011;61721;42.206;25.320;2023-05-10T01:22:14;9.85;;;5.78;;
73487;SDS011;61721;42.206;25.320;2023-05-10T01:25:15;8.32;;;5.18;;
73487;SDS011;61721;42.206;25.320;2023-05-10T01:28:09;11.07;;;5.18;;
73487;SDS011;61721;42.206;25.320;2023-05-10T01:31:08;10.25;;;4.80;;
73487;SDS011;61721;42.206;25.320;2023-05-10T01:33:58;6.75;;;4.28;;
73487;SDS011;61721;42.206;25.320;2023-05-10T01:36:39;8.15;;;3.80;;
73487;SDS011;61721;42.206;25.320;2023-05-10T01:39:21;7.68;;;3.95;;
73487;SDS011;61721;42.206;25.320;2023-05-10T01:44:53;10.00;;;4.38;;
73487;SDS011;61721;42.206;25.320;2023-05-10T01:47:35;10.90;;;3.63;;
73487;SDS011;61721;42.206;25.320;2023-05-10T01:50:19;8.57;;;4.13;;
73487;SDS011;61721;42.206;25.320;2023-05-10T01:53:00;7.97;;;3.65;;
73487;SDS011;61721;42.206;25.320;2023-05-10T01:55:40;7.50;;;3.53;;
73487;SDS011;61721;42.206;25.320;2023-05-10T01:58:22;7.22;;;3.97;;
73487;SDS011;61721;42.206;25.320;2023-05-10T02:01:03;7.80;;;3.75;;
73487;SDS011;61721;42.206;25.320;2023-05-10T02:03:41;7.70;;;3.50;;
73487;SDS011;61721;42.206;25.320;2023-05-10T02:06:21;8.98;;;3.75;;
73487;SDS011;61721;42.206;25.320;2023-05-10T02:09:00;6.00;;;3.70;;
73487;SDS011;61721;42.206;25.320;2023-05-10T02:11:37;7.35;;;4.18;;
73487;SDS011;61721;42.206;25.320;2023-05-10T02:14:13;7.82;;;3.83;;
73487;SDS011;61721;42.206;25.320;2023-05-10T02:16:50;7.13;;;3.70;;
73487;SDS011;61721;42.206;25.320;2023-05-10T02:19:29;5.82;;;3.50;;
73487;SDS011;61721;42.206;25.320;2023-05-10T02:22:09;9.25;;;4.03;;
73487;SDS011;61721;42.206;25.320;2023-05-10T02:27:47;7.18;;;3.75;;
73487;SDS011;61721;42.206;25.320;2023-05-10T02:30:24;8.07;;;3.75;;
73487;SDS011;61721;42.206;25.320;2023-05-10T02:33:01;7.63;;;3.75;;
73487;SDS011;61721;42.206;25.320;2023-05-10T02:35:40;6.32;;;3.42;;
73487;SDS011;61721;42.206;25.320;2023-05-10T02:38:20;6.88;;;3.80;;
73487;SDS011;61721;42.206;25.320;2023-05-10T02:40:59;7.38;;;3.80;;
73487;SDS011;61721;42.206;25.320;2023-05-10T02:43:36;6.20;;;3.65;;
73487;SDS011;61721;42.206;25.320;2023-05-10T02:46:14;6.20;;;3.72;;
73487;SDS011;61721;42.206;25.320;2023-05-10T02:48:50;8.95;;;3.80;;
73487;SDS011;61721;42.206;25.320;2023-05-10T02:51:28;8.43;;;4.07;;
73487;SDS011;61721;42.206;25.320;2023-05-10T02:54:10;9.32;;;3.65;;
73487;SDS011;61721;42.206;25.320;2023-05-10T02:56:56;7.70;;;3.47;;
73487;SDS011;61721;42.206;25.320;2023-05-10T02:59:34;7.72;;;4.20;;
73487;SDS011;61721;42.206;25.320;2023-05-10T03:02:10;7.15;;;3.50;;
73487;SDS011;61721;42.206;25.320;2023-05-10T03:04:48;9.00;;;3.90;;
73487;SDS011;61721;42.206;25.320;2023-05-10T03:07:24;8.85;;;3.75;;
73487;SDS011;61721;42.206;25.320;2023-05-10T03:10:03;9.30;;;3.60;;
73487;SDS011;61721;42.206;25.320;2023-05-10T03:12:46;5.68;;;3.17;;
73487;SDS011;61721;42.206;25.320;2023-05-10T03:15:30;9.63;;;3.65;;
73487;SDS011;61721;42.206;25.320;2023-05-10T03:18:14;8.23;;;3.78;;
73487;SDS011;61721;42.206;25.320;2023-05-10T03:20:55;6.55;;;3.67;;
73487;SDS011;61721;42.206;25.320;2023-05-10T03:23:39;9.77;;;3.60;;
73487;SDS011;61721;42.206;25.320;2023-05-10T03:26:23;8.50;;;3.83;;
73487;SDS011;61721;42.206;25.320;2023-05-10T03:29:01;7.43;;;3.40;;
73487;SDS011;61721;42.206;25.320;2023-05-10T03:31:39;6.82;;;3.60;;
73487;SDS011;61721;42.206;25.320;2023-05-10T03:34:15;7.88;;;3.70;;
73487;SDS011;61721;42.206;25.320;2023-05-10T03:36:51;8.75;;;3.50;;
73487;SDS011;61721;42.206;25.320;2023-05-10T03:39:27;6.07;;;3.40;;
73487;SDS011;61721;42.206;25.320;2023-05-10T03:42:06;7.45;;;3.80;;
73487;SDS011;61721;42.206;25.320;2023-05-10T03:44:45;9.50;;;3.35;;
73487;SDS011;61721;42.206;25.320;2023-05-10T03:47:23;5.22;;;3.22;;
73487;SDS011;61721;42.206;25.320;2023-05-10T03:49:59;6.65;;;4.22;;
73487;SDS011;61721;42.206;25.320;2023-05-10T03:52:36;6.18;;;3.20;;
73487;SDS011;61721;42.206;25.320;2023-05-10T03:55:12;8.07;;;3.05;;
73487;SDS011;61721;42.206;25.320;2023-05-10T03:57:51;5.28;;;3.10;;
73487;SDS011;61721;42.206;25.320;2023-05-10T04:00:34;6.97;;;3.38;;
73487;SDS011;61721;42.206;25.320;2023-05-10T04:03:16;5.35;;;3.38;;
73487;SDS011;61721;42.206;25.320;2023-05-10T04:05:58;7.43;;;3.47;;
73487;SDS011;61721;42.206;25.320;2023-05-10T04:08:35;7.63;;;3.80;;
73487;SDS011;61721;42.206;25.320;2023-05-10T04:11:11;5.55;;;3.20;;
73487;SDS011;61721;42.206;25.320;2023-05-10T04:13:50;6.88;;;3.72;;
73487;SDS011;61721;42.206;25.320;2023-05-10T04:19:45;5.22;;;2.90;;
73487;SDS011;61721;42.206;25.320;2023-05-10T04:22:25;7.90;;;3.20;;
73487;SDS011;61721;42.206;25.320;2023-05-10T04:25:02;5.85;;;3.75;;
73487;SDS011;61721;42.206;25.320;2023-05-10T04:27:39;9.07;;;3.88;;
73487;SDS011;61721;42.206;25.320;2023-05-10T04:30:18;8.40;;;3.10;;
73487;SDS011;61721;42.206;25.320;2023-05-10T04:32:54;6.15;;;3.20;;
73487;SDS011;61721;42.206;25.320;2023-05-10T04:35:34;7.75;;;3.72;;
73487;SDS011;61721;42.206;25.320;2023-05-10T04:38:11;8.35;;;3.45;;
73487;SDS011;61721;42.206;25.320;2023-05-10T04:40:48;5.03;;;2.72;;
73487;SDS011;61721;42.206;25.320;2023-05-10T04:43:25;7.72;;;2.80;;
73487;SDS011;61721;42.206;25.320;2023-05-10T04:46:04;8.35;;;3.72;;
73487;SDS011;61721;42.206;25.320;2023-05-10T04:48:41;8.00;;;3.40;;
73487;SDS011;61721;42.206;25.320;2023-05-10T04:51:17;5.03;;;3.00;;
73487;SDS011;61721;42.206;25.320;2023-05-10T04:53:53;9.30;;;3.42;;
73487;SDS011;61721;42.206;25.320;2023-05-10T04:56:29;5.78;;;3.08;;
73487;SDS011;61721;42.206;25.320;2023-05-10T04:59:05;7.20;;;3.13;;
73487;SDS011;61721;42.206;25.320;2023-05-10T05:01:44;9.43;;;3.58;;
73487;SDS011;61721;42.206;25.320;2023-05-10T05:04:22;7.75;;;3.47;;
73487;SDS011;61721;42.206;25.320;2023-05-10T05:06:58;5.47;;;2.67;;
73487;SDS011;61721;42.206;25.320;2023-05-10T05:09:34;9.63;;;3.45;;
73487;SDS011;61721;42.206;25.320;2023-05-10T05:12:10;5.45;;;2.80;;
73487;SDS011;61721;42.206;25.320;2023-05-10T05:14:46;6.03;;;3.10;;
73487;SDS011;61721;42.206;25.320;2023-05-10T05:17:26;5.93;;;2.92;;
73487;SDS011;61721;42.206;25.320;2023-05-10T05:20:03;6.40;;;3.25;;
73487;SDS011;61721;42.206;25.320;2023-05-10T05:22:40;8.43;;;3.13;;
73487;SDS011;61721;42.206;25.320;2023-05-10T05:25:15;5.63;;;3.05;;
73487;SDS011;61721;42.206;25.320;2023-05-10T05:27:51;7.47;;;3.17;;
73487;SDS011;61721;42.206;25.320;2023-05-10T05:30:27;5.35;;;2.97;;
73487;SDS011;61721;42.206;25.320;2023-05-10T05:33:07;7.03;;;3.33;;
73487;SDS011;61721;42.206;25.320;2023-05-10T05:35:51;11.30;;;4.15;;
73487;SDS011;61721;42.206;25.320;2023-05-10T05:38:28;7.75;;;3.97;;
73487;SDS011;61721;42.206;25.320;2023-05-10T05:41:05;9.98;;;3.28;;
73487;SDS011;61721;42.206;25.320;2023-05-10T05:43:51;5.43;;;2.92;;
73487;SDS011;61721;42.206;25.320;2023-05-10T05:46:27;7.38;;;2.83;;
73487;SDS011;61721;42.206;25.320;2023-05-10T05:49:06;6.80;;;3.20;;
73487;SDS011;61721;42.206;25.320;2023-05-10T05:51:42;7.65;;;3.03;;
73487;SDS011;61721;42.206;25.320;2023-05-10T05:54:19;5.85;;;2.97;;
73487;SDS011;61721;42.206;25.320;2023-05-10T05:57:04;6.78;;;3.03;;
73487;SDS011;61721;42.206;25.320;2023-05-10T05:59:41;8.40;;;3.10;;
73487;SDS011;61721;42.206;25.320;2023-05-10T06:02:18;6.63;;;2.53;;
73487;SDS011;61721;42.206;25.320;2023-05-10T06:04:57;11.70;;;2.92;;
73487;SDS011;61721;42.206;25.320;2023-05-10T06:07:33;4.78;;;2.30;;
73487;SDS011;61721;42.206;25.320;2023-05-10T06:10:09;9.60;;;2.90;;
73487;SDS011;61721;42.206;25.320;2023-05-10T06:15:31;4.82;;;2.75;;
73487;SDS011;61721;42.206;25.320;2023-05-10T06:18:07;6.72;;;2.50;;
73487;SDS011;61721;42.206;25.320;2023-05-10T06:23:26;6.07;;;2.63;;
73487;SDS011;61721;42.206;25.320;2023-05-10T06:26:02;5.90;;;2.42;;
73487;SDS011;61721;42.206;25.320;2023-05-10T06:28:38;5.85;;;2.58;;
73487;SDS011;61721;42.206;25.320;2023-05-10T06:31:15;5.28;;;2.72;;
73487;SDS011;61721;42.206;25.320;2023-05-10T06:33:51;6.97;;;2.53;;
73487;SDS011;61721;42.206;25.320;2023-05-10T06:36:29;6.13;;;2.70;;
73487;SDS011;61721;42.206;25.320;2023-05-10T06:39:05;5.53;;;2.28;;
73487;SDS011;61721;42.206;25.320;2023-05-10T06:41:44;7.32;;;2.63;;
73487;SDS011;61721;42.206;25.320;2023-05-10T06:44:19;5.85;;;3.00;;
73487;SDS011;61721;42.206;25.320;2023-05-10T06:46:55;6.78;;;2.88;;
73487;SDS011;61721;42.206;25.320;2023-05-10T06:49:31;5.78;;;2.80;;
73487;SDS011;61721;42.206;25.320;2023-05-10T06:52:10;5.38;;;3.17;;
73487;SDS011;61721;42.206;25.320;2023-05-10T06:54:46;7.07;;;3.10;;
73487;SDS011;61721;42.206;25.320;2023-05-10T06:57:22;8.75;;;3.00;;
73487;SDS011;61721;42.206;25.320;2023-05-10T07:00:07;6.05;;;3.03;;
73487;SDS011;61721;42.206;25.320;2023-05-10T07:02:45;5.10;;;2.97;;
73487;SDS011;61721;42.206;25.320;2023-05-10T07:05:22;7.32;;;3.45;;
73487;SDS011;61721;42.206;25.320;2023-05-10T07:08:02;6.10;;;2.53;;
73487;SDS011;61721;42.206;25.320;2023-05-10T07:10:40;5.57;;;2.40;;
73487;SDS011;61721;42.206;25.320;2023-05-10T07:13:16;7.85;;;3.67;;
73487;SDS011;61721;42.206;25.320;2023-05-10T07:15:52;6.60;;;3.20;;
73487;SDS011;61721;42.206;25.320;2023-05-10T07:18:28;5.50;;;2.33;;
73487;SDS011;61721;42.206;25.320;2023-05-10T07:21:04;7.13;;;3.15;;
73487;SDS011;61721;42.206;25.320;2023-05-10T07:23:43;5.50;;;2.20;;
73487;SDS011;61721;42.206;25.320;2023-05-10T07:26:19;5.05;;;2.83;;
73487;SDS011;61721;42.206;25.320;2023-05-10T07:28:55;5.93;;;2.88;;
73487;SDS011;61721;42.206;25.320;2023-05-10T07:31:32;6.90;;;3.33;;
73487;SDS011;61721;42.206;25.320;2023-05-10T07:34:08;5.80;;;2.60;;
73487;SDS011;61721;42.206;25.320;2023-05-10T07:36:44;4.20;;;2.00;;
73487;SDS011;61721;42.206;25.320;2023-05-10T07:39:23;9.35;;;4.95;;
73487;SDS011;61721;42.206;25.320;2023-05-10T07:41:59;10.20;;;3.92;;
73487;SDS011;61721;42.206;25.320;2023-05-10T07:44:35;6.60;;;3.10;;
73487;SDS011;61721;42.206;25.320;2023-05-10T07:47:11;5.88;;;3.15;;
73487;SDS011;61721;42.206;25.320;2023-05-10T07:49:47;10.20;;;3.72;;
73487;SDS011;61721;42.206;25.320;2023-05-10T07:52:23;17.05;;;5.43;;
73487;SDS011;61721;42.206;25.320;2023-05-10T07:55:02;15.70;;;6.35;;
73487;SDS011;61721;42.206;25.320;2023-05-10T07:57:38;9.48;;;3.20;;
73487;SDS011;61721;42.206;25.320;2023-05-10T08:00:16;7.55;;;2.50;;
73487;SDS011;61721;42.206;25.320;2023-05-10T08:02:53;8.55;;;2.58;;
73487;SDS011;61721;42.206;25.320;2023-05-10T08:05:30;4.25;;;2.17;;
73487;SDS011;61721;42.206;25.320;2023-05-10T08:08:06;6.43;;;2.67;;
73487;SDS011;61721;42.206;25.320;2023-05-10T08:10:45;6.30;;;2.67;;
73487;SDS011;61721;42.206;25.320;2023-05-10T08:13:21;8.38;;;2.60;;
73487;SDS011;61721;42.206;25.320;2023-05-10T08:15:57;3.80;;;2.08;;
73487;SDS011;61721;42.206;25.320;2023-05-10T08:18:33;5.78;;;2.33;;
73487;SDS011;61721;42.206;25.320;2023-05-10T08:21:10;4.40;;;2.00;;
73487;SDS011;61721;42.206;25.320;2023-05-10T08:23:45;6.57;;;1.92;;
73487;SDS011;61721;42.206;25.320;2023-05-10T08:26:24;4.75;;;2.30;;
73487;SDS011;61721;42.206;25.320;2023-05-10T08:29:00;6.25;;;2.63;;
73487;SDS011;61721;42.206;25.320;2023-05-10T08:31:36;7.70;;;2.30;;
73487;SDS011;61721;42.206;25.320;2023-05-10T08:34:12;6.22;;;2.30;;
73487;SDS011;61721;42.206;25.320;2023-05-10T08:36:48;6.43;;;2.17;;
73487;SDS011;61721;42.206;25.320;2023-05-10T08:39:24;4.85;;;2.40;;
73487;SDS011;61721;42.206;25.320;2023-05-10T08:42:04;3.75;;;1.92;;
73487;SDS011;61721;42.206;25.320;2023-05-10T08:44:42;3.58;;;2.03;;
73487;SDS011;61721;42.206;25.320;2023-05-10T08:47:18;3.95;;;1.95;;
73487;SDS011;61721;42.206;25.320;2023-05-10T08:49:55;4.60;;;1.83;;
73487;SDS011;61721;42.206;25.320;2023-05-10T08:52:35;8.32;;;2.40;;
73487;SDS011;61721;42.206;25.320;2023-05-10T08:55:15;7.82;;;2.00;;
73487;SDS011;61721;42.206;25.320;2023-05-10T09:00:36;6.40;;;1.73;;
73487;SDS011;61721;42.206;25.320;2023-05-10T09:08:32;9.30;;;2.83;;
73487;SDS011;61721;42.206;25.320;2023-05-10T09:11:09;6.60;;;2.33;;
73487;SDS011;61721;42.206;25.320;2023-05-10T09:13:50;3.10;;;1.55;;
73487;SDS011;61721;42.206;25.320;2023-05-10T09:16:27;3.45;;;1.98;;
73487;SDS011;61721;42.206;25.320;2023-05-10T09:19:03;5.85;;;2.05;;
73487;SDS011;61721;42.206;25.320;2023-05-10T09:21:39;7.05;;;1.90;;
73487;SDS011;61721;42.206;25.320;2023-05-10T09:26:52;4.10;;;2.08;;
73487;SDS011;61721;42.206;25.320;2023-05-10T09:29:41;4.50;;;1.90;;
73487;SDS011;61721;42.206;25.320;2023-05-10T09:32:17;4.72;;;2.10;;
73487;SDS011;61721;42.206;25.320;2023-05-10T09:34:53;3.67;;;1.70;;
73487;SDS011;61721;42.206;25.320;2023-05-10T09:37:30;4.28;;;1.80;;
73487;SDS011;61721;42.206;25.320;2023-05-10T09:40:07;5.38;;;1.90;;
73487;SDS011;61721;42.206;25.320;2023-05-10T09:42:51;6.40;;;1.90;;
73487;SDS011;61721;42.206;25.320;2023-05-10T09:45:33;6.88;;;1.98;;
73487;SDS011;61721;42.206;25.320;2023-05-10T09:48:10;4.72;;;1.90;;
73487;SDS011;61721;42.206;25.320;2023-05-10T09:53:40;3.40;;;1.80;;
73487;SDS011;61721;42.206;25.320;2023-05-10T09:59:11;4.07;;;1.90;;
73487;SDS011;61721;42.206;25.320;2023-05-10T10:01:54;4.82;;;1.55;;
73487;SDS011;61721;42.206;25.320;2023-05-10T10:04:31;4.93;;;1.65;;
73487;SDS011;61721;42.206;25.320;2023-05-10T10:07:14;3.13;;;1.67;;
73487;SDS011;61721;42.206;25.320;2023-05-10T10:09:50;3.60;;;1.70;;
73487;SDS011;61721;42.206;25.320;2023-05-10T10:12:26;3.45;;;1.63;;
73487;SDS011;61721;42.206;25.320;2023-05-10T10:15:03;6.15;;;1.80;;
73487;SDS011;61721;42.206;25.320;2023-05-10T10:17:42;6.60;;;2.35;;
73487;SDS011;61721;42.206;25.320;2023-05-10T10:20:19;4.90;;;1.83;;
73487;SDS011;61721;42.206;25.320;2023-05-10T10:22:56;4.85;;;1.80;;
73487;SDS011;61721;42.206;25.320;2023-05-10T10:25:32;3.72;;;1.58;;
73487;SDS011;61721;42.206;25.320;2023-05-10T10:28:16;4.22;;;2.10;;
73487;SDS011;61721;42.206;25.320;2023-05-10T10:31:01;10.52;;;2.08;;
73487;SDS011;61721;42.206;25.320;2023-05-10T10:33:59;4.45;;;1.88;;
73487;SDS011;61721;42.206;25.320;2023-05-10T10:36:42;3.53;;;1.40;;
73487;SDS011;61721;42.206;25.320;2023-05-10T10:39:21;3.78;;;1.80;;
73487;SDS011;61721;42.206;25.320;2023-05-10T10:41:58;3.92;;;1.85;;
73487;SDS011;61721;42.206;25.320;2023-05-10T10:44:35;4.80;;;1.38;;
73487;SDS011;61721;42.206;25.320;2023-05-10T10:47:23;6.32;;;1.70;;
73487;SDS011;61721;42.206;25.320;2023-05-10T10:50:05;4.05;;;2.10;;
73487;SDS011;61721;42.206;25.320;2023-05-10T10:55:21;5.70;;;2.20;;
73487;SDS011;61721;42.206;25.320;2023-05-10T10:57:58;3.45;;;1.75;;
73487;SDS011;61721;42.206;25.320;2023-05-10T11:00:42;6.55;;;1.80;;
73487;SDS011;61721;42.206;25.320;2023-05-10T11:03:18;5.43;;;1.52;;
73487;SDS011;61721;42.206;25.320;2023-05-10T11:06:00;3.95;;;1.83;;
73487;SDS011;61721;42.206;25.320;2023-05-10T11:08:41;4.30;;;1.70;;
73487;SDS011;61721;42.206;25.320;2023-05-10T11:11:19;4.68;;;1.67;;
73487;SDS011;61721;42.206;25.320;2023-05-10T11:13:55;8.10;;;1.85;;
73487;SDS011;61721;42.206;25.320;2023-05-10T11:16:42;4.72;;;1.92;;
73487;SDS011;61721;42.206;25.320;2023-05-10T11:19:19;4.68;;;1.73;;
73487;SDS011;61721;42.206;25.320;2023-05-10T11:24:58;5.07;;;1.52;;
73487;SDS011;61721;42.206;25.320;2023-05-10T11:27:36;5.25;;;2.00;;
73487;SDS011;61721;42.206;25.320;2023-05-10T11:30:13;4.15;;;1.73;;
73487;SDS011;61721;42.206;25.320;2023-05-10T11:32:50;4.55;;;2.13;;
73487;SDS011;61721;42.206;25.320;2023-05-10T11:35:27;4.20;;;1.92;;
73487;SDS011;61721;42.206;25.320;2023-05-10T11:40:44;4.25;;;1.63;;
73487;SDS011;61721;42.206;25.320;2023-05-10T11:43:23;3.05;;;1.40;;
73487;SDS011;61721;42.206;25.320;2023-05-10T11:46:04;4.00;;;1.73;;
73487;SDS011;61721;42.206;25.320;2023-05-10T11:48:41;3.20;;;1.70;;
73487;SDS011;61721;42.206;25.320;2023-05-10T11:51:20;4.47;;;1.73;;
73487;SDS011;61721;42.206;25.320;2023-05-10T11:54:05;4.60;;;1.70;;
73487;SDS011;61721;42.206;25.320;2023-05-10T11:56:45;3.38;;;1.77;;
73487;SDS011;61721;42.206;25.320;2023-05-10T11:59:21;4.45;;;1.63;;
73487;SDS011;61721;42.206;25.320;2023-05-10T12:01:57;3.72;;;1.67;;
73487;SDS011;61721;42.206;25.320;2023-05-10T12:04:34;3.13;;;1.40;;
73487;SDS011;61721;42.206;25.320;2023-05-10T12:07:10;5.20;;;1.80;;
73487;SDS011;61721;42.206;25.320;2023-05-10T12:12:41;3.60;;;1.90;;
73487;SDS011;61721;42.206;25.320;2023-05-10T12:15:18;4.45;;;1.90;;
73487;SDS011;61721;42.206;25.320;2023-05-10T12:17:56;3.50;;;1.58;;
73487;SDS011;61721;42.206;25.320;2023-05-10T12:20:33;4.47;;;1.45;;
73487;SDS011;61721;42.206;25.320;2023-05-10T12:23:09;3.63;;;1.60;;
73487;SDS011;61721;42.206;25.320;2023-05-10T12:25:46;5.20;;;1.75;;
73487;SDS011;61721;42.206;25.320;2023-05-10T12:28:29;4.25;;;1.73;;
73487;SDS011;61721;42.206;25.320;2023-05-10T12:31:06;3.85;;;2.10;;
73487;SDS011;61721;42.206;25.320;2023-05-10T12:33:43;4.00;;;1.70;;
73487;SDS011;61721;42.206;25.320;2023-05-10T12:36:22;4.40;;;2.40;;
73487;SDS011;61721;42.206;25.320;2023-05-10T12:39:02;3.55;;;1.50;;
73487;SDS011;61721;42.206;25.320;2023-05-10T12:41:40;4.05;;;1.70;;
73487;SDS011;61721;42.206;25.320;2023-05-10T12:44:19;3.15;;;1.50;;
73487;SDS011;61721;42.206;25.320;2023-05-10T12:46:55;6.22;;;1.83;;
73487;SDS011;61721;42.206;25.320;2023-05-10T12:49:33;4.15;;;1.73;;
73487;SDS011;61721;42.206;25.320;2023-05-10T12:52:10;3.83;;;1.70;;
73487;SDS011;61721;42.206;25.320;2023-05-10T12:54:46;7.55;;;2.33;;
73487;SDS011;61721;42.206;25.320;2023-05-10T12:57:22;3.63;;;1.55;;
73487;SDS011;61721;42.206;25.320;2023-05-10T13:00:09;3.40;;;1.50;;
73487;SDS011;61721;42.206;25.320;2023-05-10T13:02:45;5.80;;;1.60;;
73487;SDS011;61721;42.206;25.320;2023-05-10T13:05:22;5.03;;;1.63;;
73487;SDS011;61721;42.206;25.320;2023-05-10T13:07:59;4.38;;;1.60;;
73487;SDS011;61721;42.206;25.320;2023-05-10T13:10:34;4.47;;;1.70;;
73487;SDS011;61721;42.206;25.320;2023-05-10T13:13:10;2.70;;;1.35;;
73487;SDS011;61721;42.206;25.320;2023-05-10T13:15:49;4.05;;;1.42;;
73487;SDS011;61721;42.206;25.320;2023-05-10T13:18:25;3.55;;;1.50;;
73487;SDS011;61721;42.206;25.320;2023-05-10T13:21:01;3.67;;;1.83;;
73487;SDS011;61721;42.206;25.320;2023-05-10T13:23:38;3.20;;;1.38;;
73487;SDS011;61721;42.206;25.320;2023-05-10T13:26:14;12.15;;;1.55;;
73487;SDS011;61721;42.206;25.320;2023-05-10T13:28:50;2.83;;;1.27;;
73487;SDS011;61721;42.206;25.320;2023-05-10T13:31:30;3.58;;;1.48;;
73487;SDS011;61721;42.206;25.320;2023-05-10T13:34:06;3.22;;;1.52;;
73487;SDS011;61721;42.206;25.320;2023-05-10T13:39:33;4.88;;;1.35;;
73487;SDS011;61721;42.206;25.320;2023-05-10T13:42:10;4.68;;;1.40;;
73487;SDS011;61721;42.206;25.320;2023-05-10T13:44:46;5.50;;;1.33;;
73487;SDS011;61721;42.206;25.320;2023-05-10T13:47:25;3.97;;;1.30;;
73487;SDS011;61721;42.206;25.320;2023-05-10T13:50:02;3.53;;;1.38;;
73487;SDS011;61721;42.206;25.320;2023-05-10T13:52:37;3.20;;;1.40;;
73487;SDS011;61721;42.206;25.320;2023-05-10T13:58:32;3.17;;;1.40;;
73487;SDS011;61721;42.206;25.320;2023-05-10T14:01:08;2.72;;;1.20;;
73487;SDS011;61721;42.206;25.320;2023-05-10T14:03:46;3.75;;;1.63;;
73487;SDS011;61721;42.206;25.320;2023-05-10T14:06:23;2.70;;;1.30;;
73487;SDS011;61721;42.206;25.320;2023-05-10T14:09:01;4.30;;;1.20;;
73487;SDS011;61721;42.206;25.320;2023-05-10T14:11:39;4.65;;;1.40;;
73487;SDS011;61721;42.206;25.320;2023-05-10T14:14:15;3.45;;;1.80;;
73487;SDS011;61721;42.206;25.320;2023-05-10T14:16:51;4.07;;;1.38;;
73487;SDS011;61721;42.206;25.320;2023-05-10T14:19:32;2.50;;;1.20;;
73487;SDS011;61721;42.206;25.320;2023-05-10T14:22:09;4.82;;;1.58;;
73487;SDS011;61721;42.206;25.320;2023-05-10T14:24:45;3.55;;;1.67;;
73487;SDS011;61721;42.206;25.320;2023-05-10T14:27:21;4.32;;;2.08;;
73487;SDS011;61721;42.206;25.320;2023-05-10T14:29:57;4.88;;;2.20;;
73487;SDS011;61721;42.206;25.320;2023-05-10T14:32:32;6.85;;;2.42;;
73487;SDS011;61721;42.206;25.320;2023-05-10T14:35:11;13.68;;;3.63;;
73487;SDS011;61721;42.206;25.320;2023-05-10T14:37:48;3.80;;;1.60;;
73487;SDS011;61721;42.206;25.320;2023-05-10T14:40:27;5.55;;;1.65;;
73487;SDS011;61721;42.206;25.320;2023-05-10T14:43:03;3.33;;;1.50;;
73487;SDS011;61721;42.206;25.320;2023-05-10T14:45:39;3.72;;;1.73;;
73487;SDS011;61721;42.206;25.320;2023-05-10T14:48:16;3.88;;;1.67;;
73487;SDS011;61721;42.206;25.320;2023-05-10T14:53:35;6.65;;;2.17;;
73487;SDS011;61721;42.206;25.320;2023-05-10T14:56:12;4.45;;;1.75;;
73487;SDS011;61721;42.206;25.320;2023-05-10T14:58:49;4.93;;;1.63;;
73487;SDS011;61721;42.206;25.320;2023-05-10T15:01:27;6.05;;;2.40;;
73487;SDS011;61721;42.206;25.320;2023-05-10T15:04:05;7.00;;;2.78;;
73487;SDS011;61721;42.206;25.320;2023-05-10T15:06:44;3.83;;;1.73;;
73487;SDS011;61721;42.206;25.320;2023-05-10T15:09:20;4.43;;;1.80;;
73487;SDS011;61721;42.206;25.320;2023-05-10T15:11:56;3.00;;;1.45;;
73487;SDS011;61721;42.206;25.320;2023-05-10T15:14:33;3.80;;;1.85;;
73487;SDS011;61721;42.206;25.320;2023-05-10T15:17:09;6.35;;;2.10;;
73487;SDS011;61721;42.206;25.320;2023-05-10T15:19:45;3.88;;;1.88;;
73487;SDS011;61721;42.206;25.320;2023-05-10T15:22:24;4.72;;;1.80;;
73487;SDS011;61721;42.206;25.320;2023-05-10T15:25:04;4.22;;;1.85;;
73487;SDS011;61721;42.206;25.320;2023-05-10T15:27:48;3.42;;;1.73;;
73487;SDS011;61721;42.206;25.320;2023-05-10T15:33:03;5.00;;;2.10;;
73487;SDS011;61721;42.206;25.320;2023-05-10T15:35:40;5.30;;;1.80;;
73487;SDS011;61721;42.206;25.320;2023-05-10T15:38:19;3.40;;;1.52;;
73487;SDS011;61721;42.206;25.320;2023-05-10T15:40:56;3.67;;;1.63;;
73487;SDS011;61721;42.206;25.320;2023-05-10T15:43:31;4.85;;;1.70;;
73487;SDS011;61721;42.206;25.320;2023-05-10T15:46:08;3.55;;;1.65;;
73487;SDS011;61721;42.206;25.320;2023-05-10T15:48:49;3.40;;;1.70;;
73487;SDS011;61721;42.206;25.320;2023-05-10T15:51:25;4.40;;;1.80;;
73487;SDS011;61721;42.206;25.320;2023-05-10T15:54:04;3.25;;;1.65;;
73487;SDS011;61721;42.206;25.320;2023-05-10T15:56:40;4.60;;;1.83;;
73487;SDS011;61721;42.206;25.320;2023-05-10T15:59:16;3.55;;;1.90;;
73487;SDS011;61721;42.206;25.320;2023-05-10T16:01:52;7.22;;;2.15;;
73487;SDS011;61721;42.206;25.320;2023-05-10T16:04:29;9.95;;;2.75;;
73487;SDS011;61721;42.206;25.320;2023-05-10T16:07:04;10.95;;;4.32;;
73487;SDS011;61721;42.206;25.320;2023-05-10T16:09:53;10.25;;;3.53;;
73487;SDS011;61721;42.206;25.320;2023-05-10T16:12:29;4.45;;;2.05;;
73487;SDS011;61721;42.206;25.320;2023-05-10T16:17:50;5.53;;;1.98;;
73487;SDS011;61721;42.206;25.320;2023-05-10T16:20:27;4.20;;;2.10;;
73487;SDS011;61721;42.206;25.320;2023-05-10T16:23:04;4.78;;;1.83;;
73487;SDS011;61721;42.206;25.320;2023-05-10T16:25:45;4.25;;;2.40;;
73487;SDS011;61721;42.206;25.320;2023-05-10T16:28:21;6.50;;;2.10;;
73487;SDS011;61721;42.206;25.320;2023-05-10T16:30:58;5.15;;;2.20;;
73487;SDS011;61721;42.206;25.320;2023-05-10T16:33:34;3.88;;;1.85;;